sensor_id;sensor_type;location;lat;lon;timestamp;pressure;altitude;pressure_sealevel;temperature
75658;BMP280;64255;49.892;17.884;2023-05-20T05:02:34;99563.72;;;10.34
75658;BMP280;64255;49.892;17.884;2023-05-20T05:05:21;99580.50;;;10.34
75658;BMP280;64255;49.892;17.884;2023-05-20T05:08:09;99573.75;;;10.43
75658;BMP280;64255;49.892;17.884;2023-05-20T05:10:56;99586.03;;;10.40
75658;BMP280;64255;49.892;17.884;2023-05-20T05:13:42;99584.56;;;10.39
75658;BMP280;64255;49.892;17.884;2023-05-20T05:16:28;99580.69;;;10.40
75658;BMP280;64255;49.892;17.884;2023-05-20T05:19:15;99566.13;;;10.41
75658;BMP280;64255;49.892;17.884;2023-05-20T05:22:01;99572.44;;;10.47
75658;BMP280;64255;49.892;17.884;2023-05-20T05:24:48;99575.97;;;10.44
75658;BMP280;64255;49.892;17.884;2023-05-20T05:27:35;99580.00;;;10.49
75658;BMP280;64255;49.892;17.884;2023-05-20T05:30:21;99583.47;;;10.49
75658;BMP280;64255;49.892;17.884;2023-05-20T05:33:08;99583.31;;;10.53
75658;BMP280;64255;49.892;17.884;2023-05-20T05:35:54;99583.53;;;10.59
75658;BMP280;64255;49.892;17.884;2023-05-20T05:38:41;99585.69;;;10.51
75658;BMP280;64255;49.892;17.884;2023-05-20T05:41:27;99594.97;;;10.59
75658;BMP280;64255;49.892;17.884;2023-05-20T05:44:14;99594.69;;;10.57
75658;BMP280;64255;49.892;17.884;2023-05-20T05:47:01;99608.69;;;10.61
75658;BMP280;64255;49.892;17.884;2023-05-20T05:49:48;99599.16;;;10.60
75658;BMP280;64255;49.892;17.884;2023-05-20T05:52:35;99595.28;;;10.61
75658;BMP280;64255;49.892;17.884;2023-05-20T05:55:21;99589.38;;;10.66
75658;BMP280;64255;49.892;17.884;2023-05-20T05:58:07;99587.44;;;10.67
75658;BMP280;64255;49.892;17.884;2023-05-20T06:00:54;99600.09;;;10.66
75658;BMP280;64255;49.892;17.884;2023-05-20T06:03:40;99589.56;;;10.72
75658;BMP280;64255;49.892;17.884;2023-05-20T06:06:27;99586.38;;;10.64
75658;BMP280;64255;49.892;17.884;2023-05-20T06:09:13;99578.34;;;10.64
75658;BMP280;64255;49.892;17.884;2023-05-20T06:12:00;99581.19;;;10.70
75658;BMP280;64255;49.892;17.884;2023-05-20T06:14:47;99584.81;;;10.76
75658;BMP280;64255;49.892;17.884;2023-05-20T06:17:34;99583.44;;;10.71
75658;BMP280;64255;49.892;17.884;2023-05-20T06:20:20;99591.06;;;10.73
75658;BMP280;64255;49.892;17.884;2023-05-20T06:23:07;99586.47;;;10.83
75658;BMP280;64255;49.892;17.884;2023-05-20T06:25:58;99590.03;;;10.80
75658;BMP280;64255;49.892;17.884;2023-05-20T06:28:44;99578.06;;;10.71
75658;BMP280;64255;49.892;17.884;2023-05-20T06:31:31;99587.28;;;10.70
75658;BMP280;64255;49.892;17.884;2023-05-20T06:34:17;99569.63;;;10.73
75658;BMP280;64255;49.892;17.884;2023-05-20T06:37:04;99566.19;;;10.73
75658;BMP280;64255;49.892;17.884;2023-05-20T06:39:51;99575.03;;;10.82
75658;BMP280;64255;49.892;17.884;2023-05-20T06:42:38;99574.59;;;10.84
75658;BMP280;64255;49.892;17.884;2023-05-20T06:45:24;99569.56;;;10.95
75658;BMP280;64255;49.892;17.884;2023-05-20T06:48:11;99567.72;;;10.83
75658;BMP280;64255;49.892;17.884;2023-05-20T06:50:57;99567.13;;;10.79
75658;BMP280;64255;49.892;17.884;2023-05-20T06:53:44;99561.19;;;10.84
75658;BMP280;64255;49.892;17.884;2023-05-20T06:56:30;99558.84;;;10.86
75658;BMP280;64255;49.892;17.884;2023-05-20T06:59:17;99556.59;;;10.84
75658;BMP280;64255;49.892;17.884;2023-05-20T07:02:03;99559.47;;;10.99
75658;BMP280;64255;49.892;17.884;2023-05-20T07:04:50;99561.50;;;10.86
75658;BMP280;64255;49.892;17.884;2023-05-20T07:07:37;99565.28;;;10.98
75658;BMP280;64255;49.892;17.884;2023-05-20T07:10:23;99571.06;;;10.96
75658;BMP280;64255;49.892;17.884;2023-05-20T07:13:10;99572.03;;;11.02
75658;BMP280;64255;49.892;17.884;2023-05-20T07:15:56;99571.41;;;11.08
75658;BMP280;64255;49.892;17.884;2023-05-20T07:18:43;99567.97;;;10.98
75658;BMP280;64255;49.892;17.884;2023-05-20T07:21:29;99576.13;;;10.94
75658;BMP280;64255;49.892;17.884;2023-05-20T07:24:16;99577.00;;;10.91
75658;BMP280;64255;49.892;17.884;2023-05-20T07:27:03;99577.66;;;11.04
75658;BMP280;64255;49.892;17.884;2023-05-20T07:29:49;99572.91;;;11.09
75658;BMP280;64255;49.892;17.884;2023-05-20T07:32:36;99573.50;;;11.03
75658;BMP280;64255;49.892;17.884;2023-05-20T07:35:23;99573.19;;;11.01
75658;BMP280;64255;49.892;17.884;2023-05-20T07:38:11;99577.53;;;11.08
75658;BMP280;64255;49.892;17.884;2023-05-20T07:40:57;99571.75;;;11.10
75658;BMP280;64255;49.892;17.884;2023-05-20T07:43:45;99560.44;;;11.15
75658;BMP280;64255;49.892;17.884;2023-05-20T07:46:31;99561.19;;;11.15
75658;BMP280;64255;49.892;17.884;2023-05-20T07:49:18;99556.59;;;11.16
75658;BMP280;64255;49.892;17.884;2023-05-20T07:52:04;99561.50;;;11.17
75658;BMP280;64255;49.892;17.884;2023-05-20T07:54:51;99563.47;;;11.35
75658;BMP280;64255;49.892;17.884;2023-05-20T07:57:37;99550.69;;;11.40
75658;BMP280;64255;49.892;17.884;2023-05-20T08:00:24;99551.13;;;11.38
75658;BMP280;64255;49.892;17.884;2023-05-20T08:03:11;99551.13;;;11.38
75658;BMP280;64255;49.892;17.884;2023-05-20T08:05:57;99558.84;;;11.27
75658;BMP280;64255;49.892;17.884;2023-05-20T08:08:44;99541.47;;;11.41
75658;BMP280;64255;49.892;17.884;2023-05-20T08:11:30;99555.44;;;11.35
75658;BMP280;64255;49.892;17.884;2023-05-20T08:14:17;99548.59;;;11.44
75658;BMP280;64255;49.892;17.884;2023-05-20T08:17:03;99547.75;;;11.56
75658;BMP280;64255;49.892;17.884;2023-05-20T08:19:50;99537.59;;;11.51
75658;BMP280;64255;49.892;17.884;2023-05-20T08:22:36;99530.47;;;11.57
75658;BMP280;64255;49.892;17.884;2023-05-20T08:25:22;99525.88;;;11.58
75658;BMP280;64255;49.892;17.884;2023-05-20T08:28:09;99534.97;;;11.88
75658;BMP280;64255;49.892;17.884;2023-05-20T08:30:56;99529.31;;;11.86
75658;BMP280;64255;49.892;17.884;2023-05-20T08:33:42;99539.72;;;11.93
75658;BMP280;64255;49.892;17.884;2023-05-20T08:36:29;99545.69;;;11.79
75658;BMP280;64255;49.892;17.884;2023-05-20T08:39:16;99548.09;;;11.95
75658;BMP280;64255;49.892;17.884;2023-05-20T08:42:02;99546.72;;;11.81
75658;BMP280;64255;49.892;17.884;2023-05-20T08:44:51;99544.50;;;11.98
75658;BMP280;64255;49.892;17.884;2023-05-20T08:47:42;99539.41;;;11.91
75658;BMP280;64255;49.892;17.884;2023-05-20T08:50:28;99540.78;;;12.05
75658;BMP280;64255;49.892;17.884;2023-05-20T08:53:15;99534.66;;;12.23
75658;BMP280;64255;49.892;17.884;2023-05-20T08:56:02;99540.19;;;12.10
75658;BMP280;64255;49.892;17.884;2023-05-20T08:58:48;99532.97;;;12.26
75658;BMP280;64255;49.892;17.884;2023-05-20T09:01:42;99528.97;;;12.30
75658;BMP280;64255;49.892;17.884;2023-05-20T09:04:28;99524.78;;;12.29
75658;BMP280;64255;49.892;17.884;2023-05-20T09:07:28;99519.53;;;12.53
75658;BMP280;64255;49.892;17.884;2023-05-20T09:10:15;99517.59;;;12.45
75658;BMP280;64255;49.892;17.884;2023-05-20T09:13:03;99519.78;;;12.65
75658;BMP280;64255;49.892;17.884;2023-05-20T09:15:50;99519.81;;;12.46
75658;BMP280;64255;49.892;17.884;2023-05-20T09:18:39;99524.47;;;12.79
75658;BMP280;64255;49.892;17.884;2023-05-20T09:21:28;99515.69;;;12.79
75658;BMP280;64255;49.892;17.884;2023-05-20T09:24:14;99519.00;;;12.64
75658;BMP280;64255;49.892;17.884;2023-05-20T09:27:01;99518.13;;;12.67
75658;BMP280;64255;49.892;17.884;2023-05-20T09:29:48;99510.88;;;12.83
75658;BMP280;64255;49.892;17.884;2023-05-20T09:32:34;99506.06;;;12.96
75658;BMP280;64255;49.892;17.884;2023-05-20T09:35:22;99512.22;;;13.12
75658;BMP280;64255;49.892;17.884;2023-05-20T09:38:10;99509.25;;;13.10
75658;BMP280;64255;49.892;17.884;2023-05-20T09:40:58;99504.94;;;13.12
75658;BMP280;64255;49.892;17.884;2023-05-20T09:43:45;99507.97;;;13.29
75658;BMP280;64255;49.892;17.884;2023-05-20T09:46:33;99499.53;;;13.36
75658;BMP280;64255;49.892;17.884;2023-05-20T09:49:22;99490.94;;;13.47
75658;BMP280;64255;49.892;17.884;2023-05-20T09:52:09;99497.94;;;13.84
75658;BMP280;64255;49.892;17.884;2023-05-20T09:54:56;99497.50;;;13.85
75658;BMP280;64255;49.892;17.884;2023-05-20T09:57:45;99498.31;;;13.62
75658;BMP280;64255;49.892;17.884;2023-05-20T10:00:32;99500.38;;;13.82
75658;BMP280;64255;49.892;17.884;2023-05-20T10:03:21;99495.91;;;14.08
75658;BMP280;64255;49.892;17.884;2023-05-20T10:09:29;99496.31;;;14.01
75658;BMP280;64255;49.892;17.884;2023-05-20T10:19:31;99494.16;;;14.05
75658;BMP280;64255;49.892;17.884;2023-05-20T10:22:29;99494.16;;;14.05
75658;BMP280;64255;49.892;17.884;2023-05-20T10:25:26;99501.03;;;14.36
75658;BMP280;64255;49.892;17.884;2023-05-20T10:28:12;99499.16;;;14.43
75658;BMP280;64255;49.892;17.884;2023-05-20T10:30:59;99490.53;;;14.38
75658;BMP280;64255;49.892;17.884;2023-05-20T10:33:47;99490.84;;;14.76
75658;BMP280;64255;49.892;17.884;2023-05-20T10:36:33;99488.09;;;14.55
75658;BMP280;64255;49.892;17.884;2023-05-20T10:39:31;99478.44;;;14.49
75658;BMP280;64255;49.892;17.884;2023-05-20T10:42:27;99477.84;;;14.59
75658;BMP280;64255;49.892;17.884;2023-05-20T10:45:26;99472.88;;;14.88
75658;BMP280;64255;49.892;17.884;2023-05-20T10:48:23;99468.94;;;15.09
75658;BMP280;64255;49.892;17.884;2023-05-20T10:51:13;99471.78;;;15.00
75658;BMP280;64255;49.892;17.884;2023-05-20T10:54:01;99472.84;;;15.08
75658;BMP280;64255;49.892;17.884;2023-05-20T10:56:54;99464.34;;;15.16
75658;BMP280;64255;49.892;17.884;2023-05-20T10:59:40;99467.50;;;15.14
75658;BMP280;64255;49.892;17.884;2023-05-20T11:02:28;99464.56;;;15.38
75658;BMP280;64255;49.892;17.884;2023-05-20T11:05:16;99456.78;;;15.20
75658;BMP280;64255;49.892;17.884;2023-05-20T11:08:08;99454.53;;;15.39
75658;BMP280;64255;49.892;17.884;2023-05-20T11:10:56;99447.81;;;15.55
75658;BMP280;64255;49.892;17.884;2023-05-20T11:13:42;99455.59;;;15.73
75658;BMP280;64255;49.892;17.884;2023-05-20T11:16:29;99450.84;;;15.94
75658;BMP280;64255;49.892;17.884;2023-05-20T11:19:16;99439.38;;;16.05
75658;BMP280;64255;49.892;17.884;2023-05-20T11:22:02;99434.94;;;16.02
75658;BMP280;64255;49.892;17.884;2023-05-20T11:24:49;99429.78;;;16.04
75658;BMP280;64255;49.892;17.884;2023-05-20T11:27:38;99438.78;;;16.27
75658;BMP280;64255;49.892;17.884;2023-05-20T11:30:25;99438.59;;;15.99
75658;BMP280;64255;49.892;17.884;2023-05-20T11:33:14;99429.78;;;16.42
75658;BMP280;64255;49.892;17.884;2023-05-20T11:36:01;99423.50;;;16.62
75658;BMP280;64255;49.892;17.884;2023-05-20T11:38:48;99425.16;;;16.54
75658;BMP280;64255;49.892;17.884;2023-05-20T11:41:34;99422.63;;;16.39
75658;BMP280;64255;49.892;17.884;2023-05-20T11:44:20;99425.53;;;16.78
75658;BMP280;64255;49.892;17.884;2023-05-20T11:47:07;99419.00;;;16.47
75658;BMP280;64255;49.892;17.884;2023-05-20T11:49:55;99411.72;;;16.71
75658;BMP280;64255;49.892;17.884;2023-05-20T11:52:41;99397.78;;;16.95
75658;BMP280;64255;49.892;17.884;2023-05-20T11:55:28;99386.97;;;17.01
75658;BMP280;64255;49.892;17.884;2023-05-20T11:58:23;99378.91;;;17.51
75658;BMP280;64255;49.892;17.884;2023-05-20T12:01:09;99384.03;;;17.78
75658;BMP280;64255;49.892;17.884;2023-05-20T12:03:56;99380.59;;;17.55
75658;BMP280;64255;49.892;17.884;2023-05-20T12:06:42;99391.19;;;17.36
75658;BMP280;64255;49.892;17.884;2023-05-20T12:09:29;99393.69;;;17.50
75658;BMP280;64255;49.892;17.884;2023-05-20T12:12:15;99388.00;;;17.37
75658;BMP280;64255;49.892;17.884;2023-05-20T12:15:03;99379.38;;;17.67
75658;BMP280;64255;49.892;17.884;2023-05-20T12:17:52;99378.66;;;17.72
75658;BMP280;64255;49.892;17.884;2023-05-20T12:20:39;99373.97;;;17.33
75658;BMP280;64255;49.892;17.884;2023-05-20T12:23:25;99375.94;;;17.66
75658;BMP280;64255;49.892;17.884;2023-05-20T12:26:12;99371.25;;;17.67
75658;BMP280;64255;49.892;17.884;2023-05-20T12:28:58;99369.03;;;17.82
75658;BMP280;64255;49.892;17.884;2023-05-20T12:31:45;99363.97;;;18.20
75658;BMP280;64255;49.892;17.884;2023-05-20T12:34:32;99360.91;;;17.82
75658;BMP280;64255;49.892;17.884;2023-05-20T12:37:18;99351.88;;;18.27
75658;BMP280;64255;49.892;17.884;2023-05-20T12:40:08;99358.84;;;18.17
75658;BMP280;64255;49.892;17.884;2023-05-20T12:42:54;99370.25;;;17.87
75658;BMP280;64255;49.892;17.884;2023-05-20T12:45:41;99358.84;;;18.17
75658;BMP280;64255;49.892;17.884;2023-05-20T12:48:27;99368.38;;;18.35
75658;BMP280;64255;49.892;17.884;2023-05-20T12:51:14;99364.28;;;18.11
75658;BMP280;64255;49.892;17.884;2023-05-20T12:54:00;99359.50;;;18.29
75658;BMP280;64255;49.892;17.884;2023-05-20T12:56:47;99362.34;;;18.53
75658;BMP280;64255;49.892;17.884;2023-05-20T12:59:33;99368.56;;;18.48
75658;BMP280;64255;49.892;17.884;2023-05-20T13:02:20;99362.31;;;18.59
75658;BMP280;64255;49.892;17.884;2023-05-20T13:05:07;99361.22;;;18.79
75658;BMP280;64255;49.892;17.884;2023-05-20T13:07:54;99362.22;;;18.76
75658;BMP280;64255;49.892;17.884;2023-05-20T13:10:40;99358.53;;;18.32
75658;BMP280;64255;49.892;17.884;2023-05-20T13:13:27;99352.06;;;18.41
75658;BMP280;64255;49.892;17.884;2023-05-20T13:16:13;99352.53;;;18.86
75658;BMP280;64255;49.892;17.884;2023-05-20T13:19:00;99346.88;;;18.84
75658;BMP280;64255;49.892;17.884;2023-05-20T13:21:50;99339.06;;;18.75
75658;BMP280;64255;49.892;17.884;2023-05-20T13:24:37;99320.97;;;18.89
75658;BMP280;64255;49.892;17.884;2023-05-20T13:27:23;99327.97;;;18.73
75658;BMP280;64255;49.892;17.884;2023-05-20T13:30:10;99325.75;;;19.07
75658;BMP280;64255;49.892;17.884;2023-05-20T13:32:57;99321.69;;;19.20
75658;BMP280;64255;49.892;17.884;2023-05-20T13:35:43;99311.00;;;19.27
75658;BMP280;64255;49.892;17.884;2023-05-20T13:38:30;99303.53;;;19.58
75658;BMP280;64255;49.892;17.884;2023-05-20T13:41:16;99299.56;;;19.59
75658;BMP280;64255;49.892;17.884;2023-05-20T13:44:04;99297.53;;;19.41
75658;BMP280;64255;49.892;17.884;2023-05-20T13:46:50;99295.06;;;19.68
75658;BMP280;64255;49.892;17.884;2023-05-20T13:49:37;99285.44;;;19.42
75658;BMP280;64255;49.892;17.884;2023-05-20T13:52:23;99290.59;;;19.89
75658;BMP280;64255;49.892;17.884;2023-05-20T13:55:10;99283.63;;;19.50
75658;BMP280;64255;49.892;17.884;2023-05-20T13:57:56;99281.47;;;19.87
75658;BMP280;64255;49.892;17.884;2023-05-20T14:00:43;99286.31;;;20.13
75658;BMP280;64255;49.892;17.884;2023-05-20T14:03:30;99271.50;;;20.14
75658;BMP280;64255;49.892;17.884;2023-05-20T14:06:17;99272.97;;;20.15
75658;BMP280;64255;49.892;17.884;2023-05-20T14:09:06;99270.75;;;19.94
75658;BMP280;64255;49.892;17.884;2023-05-20T14:11:52;99277.72;;;19.71
75658;BMP280;64255;49.892;17.884;2023-05-20T14:14:39;99274.69;;;19.55
75658;BMP280;64255;49.892;17.884;2023-05-20T14:17:25;99273.25;;;19.54
75658;BMP280;64255;49.892;17.884;2023-05-20T14:20:12;99275.00;;;19.46
75658;BMP280;64255;49.892;17.884;2023-05-20T14:22:58;99268.94;;;19.40
75658;BMP280;64255;49.892;17.884;2023-05-20T14:25:45;99273.94;;;19.55
75658;BMP280;64255;49.892;17.884;2023-05-20T14:28:31;99280.91;;;19.50
75658;BMP280;64255;49.892;17.884;2023-05-20T14:31:18;99280.00;;;19.67
75658;BMP280;64255;49.892;17.884;2023-05-20T14:34:04;99274.03;;;19.49
75658;BMP280;64255;49.892;17.884;2023-05-20T14:36:51;99271.00;;;19.53
75658;BMP280;64255;49.892;17.884;2023-05-20T14:39:38;99265.16;;;19.49
75658;BMP280;64255;49.892;17.884;2023-05-20T14:42:24;99268.50;;;19.55
75658;BMP280;64255;49.892;17.884;2023-05-20T14:45:11;99271.75;;;19.53
75658;BMP280;64255;49.892;17.884;2023-05-20T14:47:57;99267.56;;;19.27
75658;BMP280;64255;49.892;17.884;2023-05-20T14:50:44;99265.31;;;19.32
75658;BMP280;64255;49.892;17.884;2023-05-20T14:53:30;99267.06;;;19.54
75658;BMP280;64255;49.892;17.884;2023-05-20T14:56:17;99272.44;;;19.35
75658;BMP280;64255;49.892;17.884;2023-05-20T14:59:04;99272.75;;;19.50
75658;BMP280;64255;49.892;17.884;2023-05-20T15:01:50;99261.53;;;19.40
75658;BMP280;64255;49.892;17.884;2023-05-20T15:04:38;99267.47;;;19.39
75658;BMP280;64255;49.892;17.884;2023-05-20T15:07:24;99262.75;;;19.39
75658;BMP280;64255;49.892;17.884;2023-05-20T15:10:11;99262.91;;;19.47
75658;BMP280;64255;49.892;17.884;2023-05-20T15:12:57;99257.88;;;19.32
75658;BMP280;64255;49.892;17.884;2023-05-20T15:15:44;99254.44;;;19.32
75658;BMP280;64255;49.892;17.884;2023-05-20T15:18:30;99253.44;;;19.35
75658;BMP280;64255;49.892;17.884;2023-05-20T15:21:17;99254.78;;;19.47
75658;BMP280;64255;49.892;17.884;2023-05-20T15:24:04;99256.50;;;19.25
75658;BMP280;64255;49.892;17.884;2023-05-20T15:26:51;99252.91;;;19.36
75658;BMP280;64255;49.892;17.884;2023-05-20T15:29:38;99256.59;;;19.39
75658;BMP280;64255;49.892;17.884;2023-05-20T15:32:24;99255.00;;;19.24
75658;BMP280;64255;49.892;17.884;2023-05-20T15:35:11;99252.13;;;19.17
75658;BMP280;64255;49.892;17.884;2023-05-20T15:37:57;99249.59;;;19.24
75658;BMP280;64255;49.892;17.884;2023-05-20T15:40:44;99257.31;;;19.39
75658;BMP280;64255;49.892;17.884;2023-05-20T15:43:30;99250.19;;;19.36
75658;BMP280;64255;49.892;17.884;2023-05-20T15:46:17;99246.81;;;19.30
75658;BMP280;64255;49.892;17.884;2023-05-20T15:49:04;99253.94;;;19.33
75658;BMP280;64255;49.892;17.884;2023-05-20T15:51:50;99248.50;;;19.33
75658;BMP280;64255;49.892;17.884;2023-05-20T15:54:37;99242.72;;;19.18
75658;BMP280;64255;49.892;17.884;2023-05-20T15:57:23;99249.75;;;19.07
75658;BMP280;64255;49.892;17.884;2023-05-20T16:00:11;99239.16;;;19.04
75658;BMP280;64255;49.892;17.884;2023-05-20T16:02:57;99235.22;;;19.05
75658;BMP280;64255;49.892;17.884;2023-05-20T16:05:44;99222.19;;;19.22
75658;BMP280;64255;49.892;17.884;2023-05-20T16:08:30;99226.41;;;18.99
75658;BMP280;64255;49.892;17.884;2023-05-20T16:11:17;99232.09;;;18.95
75658;BMP280;64255;49.892;17.884;2023-05-20T16:14:03;99229.44;;;18.89
75658;BMP280;64255;49.892;17.884;2023-05-20T16:16:50;99236.16;;;18.83
75658;BMP280;64255;49.892;17.884;2023-05-20T16:19:36;99239.72;;;18.97
75658;BMP280;64255;49.892;17.884;2023-05-20T16:22:23;99241.59;;;18.83
75658;BMP280;64255;49.892;17.884;2023-05-20T16:25:09;99234.78;;;18.70
75658;BMP280;64255;49.892;17.884;2023-05-20T16:27:56;99230.84;;;18.66
75658;BMP280;64255;49.892;17.884;2023-05-20T16:30:42;99233.88;;;18.56
75658;BMP280;64255;49.892;17.884;2023-05-20T16:33:29;99236.66;;;18.51
75658;BMP280;64255;49.892;17.884;2023-05-20T16:36:15;99230.97;;;18.54
75658;BMP280;64255;49.892;17.884;2023-05-20T16:39:03;99221.91;;;18.46
75658;BMP280;64255;49.892;17.884;2023-05-20T16:41:49;99230.34;;;18.67
75658;BMP280;64255;49.892;17.884;2023-05-20T16:44:36;99228.41;;;18.68
75658;BMP280;64255;49.892;17.884;2023-05-20T16:47:22;99231.09;;;18.68
75658;BMP280;64255;49.892;17.884;2023-05-20T16:50:09;99238.00;;;18.69
75658;BMP280;64255;49.892;17.884;2023-05-20T16:52:56;99232.88;;;18.65
75658;BMP280;64255;49.892;17.884;2023-05-20T16:55:42;99237.88;;;18.55
75658;BMP280;64255;49.892;17.884;2023-05-20T16:58:29;99227.56;;;18.48
